Time;durP1;ratioP1;P1;durP2;ratioP2;P2;SDS_P1;SDS_P2;PMS_P1;PMS_P2;Temp;Humidity;BMP_temperature;BMP_pressure;BME280_temperature;BME280_humidity;BME280_pressure;Samples;Min_cycle;Max_cycle;Signal;HPM_P1;HPM_P2
2022/01/07 00:00:55;;;;;;;15.88;4.20;;;4.10;99.90;;;;;;4160360;28;20474;-68
2022/01/07 00:02:57;;;;;;;13.60;4.15;;;4.10;99.90;;;;;;4164094;28;20041;-67
2022/01/07 00:04:57;;;;;;;10.25;3.55;;;4.10;99.90;;;;;;4163712;28;20036;-69
2022/01/07 00:06:58;;;;;;;12.43;4.25;;;4.10;99.90;;;;;;4161299;28;20065;-68
2022/01/07 00:08:58;;;;;;;11.98;3.90;;;4.10;99.90;;;;;;4162916;28;20033;-69
2022/01/07 00:10:59;;;;;;;14.98;4.20;;;4.10;99.90;;;;;;4158070;28;20495;-68
2022/01/07 00:13:00;;;;;;;13.85;3.97;;;4.10;99.90;;;;;;4162695;28;20054;-68
2022/01/07 00:15:01;;;;;;;8.48;3.67;;;4.10;99.90;;;;;;4162051;28;20477;-68
2022/01/07 00:17:02;;;;;;;10.32;4.05;;;4.10;99.90;;;;;;4162153;28;20069;-68
2022/01/07 00:19:03;;;;;;;7.90;3.40;;;4.10;99.90;;;;;;4161193;28;20473;-68
2022/01/07 00:21:04;;;;;;;14.15;4.22;;;4.10;99.90;;;;;;4161983;28;20481;-68
2022/01/07 00:23:05;;;;;;;13.30;3.75;;;4.10;99.90;;;;;;4160260;28;20045;-68
2022/01/07 00:25:07;;;;;;;13.70;3.65;;;4.10;99.90;;;;;;4162762;28;20448;-69
2022/01/07 00:27:08;;;;;;;9.60;3.92;;;4.20;99.90;;;;;;4162276;28;20504;-68
2022/01/07 00:29:09;;;;;;;10.38;3.47;;;4.10;99.90;;;;;;4160359;28;20053;-68
2022/01/07 00:31:09;;;;;;;14.93;3.80;;;4.20;99.90;;;;;;4156789;28;20037;-68
2022/01/07 00:33:10;;;;;;;14.38;3.67;;;4.20;99.90;;;;;;4161669;28;20068;-68
2022/01/07 00:35:14;;;;;;;10.40;3.65;;;4.10;99.90;;;;;;4159721;28;20072;-68
2022/01/07 00:37:14;;;;;;;13.38;4.38;;;4.10;99.90;;;;;;4162287;28;20065;-68
2022/01/07 00:39:15;;;;;;;13.38;4.00;;;4.10;99.90;;;;;;4161341;28;20036;-68
2022/01/07 00:41:16;;;;;;;13.55;4.32;;;4.20;99.90;;;;;;4158293;28;20046;-68
2022/01/07 00:43:16;;;;;;;11.38;4.22;;;4.20;99.90;;;;;;4162044;28;20049;-67
2022/01/07 00:45:22;;;;;;;10.07;3.67;;;4.20;99.90;;;;;;4160031;28;20040;-68
2022/01/07 00:47:24;;;;;;;8.82;3.70;;;4.20;99.90;;;;;;4163068;28;20044;-68
2022/01/07 00:49:24;;;;;;;12.25;4.43;;;4.20;99.90;;;;;;4159408;28;20037;-68
2022/01/07 00:51:25;;;;;;;10.27;3.75;;;4.20;99.90;;;;;;4160667;28;20037;-68
2022/01/07 00:53:26;;;;;;;14.75;4.90;;;4.20;99.90;;;;;;4162705;28;20038;-68
2022/01/07 00:55:26;;;;;;;9.88;4.15;;;4.20;99.90;;;;;;4161318;28;20489;-68
2022/01/07 00:57:27;;;;;;;11.82;4.10;;;4.20;99.90;;;;;;4162877;28;20125;-68
2022/01/07 00:59:28;;;;;;;11.30;4.35;;;4.20;99.90;;;;;;4162191;28;20552;-68
2022/01/07 01:01:28;;;;;;;9.80;4.00;;;4.20;99.90;;;;;;4161844;28;20396;-68
2022/01/07 01:03:29;;;;;;;11.57;4.28;;;4.30;99.90;;;;;;4162985;28;20037;-69
2022/01/07 01:05:30;;;;;;;10.88;4.35;;;4.20;99.90;;;;;;4159828;28;20092;-68
2022/01/07 01:07:30;;;;;;;10.52;4.32;;;4.20;99.90;;;;;;4161162;28;20054;-68
2022/01/07 01:09:31;;;;;;;11.98;4.05;;;4.20;99.90;;;;;;4157442;28;20370;-68
2022/01/07 01:11:32;;;;;;;13.02;5.32;;;4.30;99.90;;;;;;4162103;28;20044;-68
2022/01/07 01:13:32;;;;;;;10.57;4.28;;;4.30;99.90;;;;;;4162379;28;20080;-68
2022/01/07 01:15:33;;;;;;;11.68;4.90;;;4.30;99.90;;;;;;4161019;28;20400;-68
2022/01/07 01:17:34;;;;;;;12.10;4.28;;;4.20;99.90;;;;;;4162241;28;20026;-68
2022/01/07 01:19:34;;;;;;;13.48;4.55;;;4.20;99.90;;;;;;4161428;28;20124;-68
2022/01/07 01:21:36;;;;;;;9.07;3.83;;;4.20;99.90;;;;;;4162028;28;20045;-68
2022/01/07 01:23:38;;;;;;;10.52;4.20;;;4.30;99.90;;;;;;4162368;28;20042;-68
2022/01/07 01:25:38;;;;;;;10.70;4.53;;;4.30;99.90;;;;;;4162017;28;20084;-68
2022/01/07 01:27:40;;;;;;;10.77;4.15;;;4.20;99.90;;;;;;4161066;28;20033;-68
2022/01/07 01:29:41;;;;;;;12.32;4.97;;;4.30;99.90;;;;;;4144943;28;20428;-68
2022/01/07 01:31:41;;;;;;;9.20;4.18;;;4.30;99.90;;;;;;4160665;28;20108;-68
2022/01/07 01:33:43;;;;;;;12.13;4.00;;;4.30;99.90;;;;;;4162109;28;20033;-68
2022/01/07 01:35:44;;;;;;;13.50;4.80;;;4.30;99.90;;;;;;4155974;28;20045;-68
2022/01/07 01:37:47;;;;;;;10.07;4.03;;;4.30;99.90;;;;;;4159199;28;20084;-68
2022/01/07 01:39:47;;;;;;;;;;;4.30;99.90;;;;;;4160259;28;20120;-67
2022/01/07 01:41:48;;;;;;;7.28;3.75;;;4.30;99.90;;;;;;4160002;28;19917;-68
2022/01/07 01:43:50;;;;;;;10.88;3.70;;;4.40;99.90;;;;;;4161567;28;21534;-68
2022/01/07 01:45:51;;;;;;;9.65;4.18;;;4.40;99.90;;;;;;4158225;28;20038;-68
2022/01/07 01:47:52;;;;;;;12.90;4.82;;;4.30;99.90;;;;;;4162367;28;20041;-68
2022/01/07 01:49:53;;;;;;;9.68;4.47;;;4.40;99.90;;;;;;4161055;28;20034;-68
2022/01/07 01:51:53;;;;;;;10.50;4.22;;;4.40;99.90;;;;;;4160371;28;20378;-68
2022/01/07 01:53:54;;;;;;;14.65;4.43;;;4.30;99.90;;;;;;4162739;28;20079;-68
2022/01/07 01:55:55;;;;;;;11.85;4.50;;;4.30;99.90;;;;;;4161215;28;20026;-67
2022/01/07 01:57:56;;;;;;;8.85;4.15;;;4.40;99.90;;;;;;4157751;28;20038;-68
2022/01/07 01:59:58;;;;;;;12.55;4.90;;;4.30;99.90;;;;;;4162090;28;20060;-68
2022/01/07 02:01:59;;;;;;;11.38;4.07;;;4.30;99.90;;;;;;4159602;28;20042;-69
2022/01/07 02:04:00;;;;;;;9.80;4.38;;;4.30;99.90;;;;;;4162336;28;20087;-68
2022/01/07 02:06:00;;;;;;;7.68;3.60;;;4.30;99.90;;;;;;4156318;28;20438;-69
2022/01/07 02:08:01;;;;;;;8.68;3.72;;;4.20;99.90;;;;;;4159218;28;20041;-68
2022/01/07 02:10:06;;;;;;;11.18;3.88;;;4.20;99.90;;;;;;4161262;28;20100;-69
2022/01/07 02:12:08;;;;;;;9.75;4.10;;;4.10;99.90;;;;;;4158449;28;20050;-68
2022/01/07 02:14:09;;;;;;;9.50;3.97;;;4.20;99.90;;;;;;4159071;28;20083;-68
2022/01/07 02:16:10;;;;;;;8.45;3.65;;;4.20;99.90;;;;;;4161035;28;20037;-68
2022/01/07 02:18:10;;;;;;;12.25;4.20;;;4.20;99.90;;;;;;4160957;28;20034;-68
2022/01/07 02:20:14;;;;;;;10.05;3.88;;;4.20;99.90;;;;;;4157640;28;20046;-67
2022/01/07 02:22:19;;;;;;;8.43;3.60;;;4.20;99.90;;;;;;4160241;28;20080;-67
2022/01/07 02:24:19;;;;;;;7.25;3.35;;;4.10;99.90;;;;;;4161657;28;20050;-67
2022/01/07 02:26:20;;;;;;;9.43;3.50;;;4.10;99.90;;;;;;4158557;28;20041;-67
2022/01/07 02:28:21;;;;;;;10.30;4.05;;;4.20;99.90;;;;;;4160124;28;20038;-68
2022/01/07 02:30:25;;;;;;;6.18;3.20;;;4.10;99.90;;;;;;4158472;28;20046;-68
2022/01/07 02:32:26;;;;;;;10.80;4.00;;;4.10;99.90;;;;;;4158633;28;20080;-68
2022/01/07 02:34:26;;;;;;;6.85;3.40;;;4.20;99.90;;;;;;4162287;28;21145;-68
2022/01/07 02:36:27;;;;;;;7.63;3.75;;;4.20;99.90;;;;;;4161628;28;20120;-68
2022/01/07 02:38:27;;;;;;;13.48;4.00;;;4.20;99.90;;;;;;4156215;28;20044;-68
2022/01/07 02:40:28;;;;;;;7.18;3.47;;;4.10;99.90;;;;;;4160334;28;20046;-68
2022/01/07 02:42:29;;;;;;;9.88;3.65;;;4.10;99.90;;;;;;4159407;28;20512;-67
2022/01/07 02:44:30;;;;;;;11.38;3.85;;;4.10;99.90;;;;;;4160239;28;20038;-69
2022/01/07 02:46:30;;;;;;;11.18;3.65;;;4.10;99.90;;;;;;4157846;28;20129;-68
2022/01/07 02:48:31;;;;;;;12.07;3.63;;;4.10;99.90;;;;;;4160200;28;20034;-69
2022/01/07 02:50:35;;;;;;;10.50;3.55;;;4.10;99.90;;;;;;4160251;28;20109;-68
2022/01/07 02:52:35;;;;;;;8.65;3.40;;;4.10;99.90;;;;;;4160586;28;20053;-67
2022/01/07 02:54:36;;;;;;;10.43;3.53;;;4.10;99.90;;;;;;4163360;28;20661;-68
2022/01/07 02:56:38;;;;;;;12.68;3.85;;;4.00;99.90;;;;;;4163438;28;20041;-68
2022/01/07 02:58:38;;;;;;;7.17;3.60;;;4.00;99.90;;;;;;4163534;28;20034;-68
2022/01/07 03:00:39;;;;;;;7.57;3.35;;;4.00;99.90;;;;;;4163760;28;20267;-67
2022/01/07 03:02:40;;;;;;;9.32;3.25;;;4.00;99.90;;;;;;4160355;28;20037;-68
2022/01/07 03:04:41;;;;;;;9.50;3.38;;;4.00;99.90;;;;;;4163103;28;20049;-68
2022/01/07 03:06:42;;;;;;;9.25;3.13;;;3.90;99.90;;;;;;4162453;28;20034;-68
2022/01/07 03:08:47;;;;;;;9.15;3.40;;;4.00;99.90;;;;;;4162616;28;20404;-68
2022/01/07 03:10:47;;;;;;;7.82;3.67;;;4.00;99.90;;;;;;4159307;28;20080;-67
2022/01/07 03:12:48;;;;;;;7.13;3.25;;;3.90;99.90;;;;;;4164235;28;20493;-67
2022/01/07 03:14:49;;;;;;;9.50;3.70;;;3.90;99.90;;;;;;4164635;28;20042;-67
2022/01/07 03:16:50;;;;;;;9.75;4.03;;;3.90;99.90;;;;;;4149925;28;20132;-67
2022/01/07 03:18:50;;;;;;;7.93;3.53;;;3.90;99.90;;;;;;4162266;28;20042;-67
2022/01/07 03:20:51;;;;;;;6.88;3.28;;;4.00;99.90;;;;;;4163943;28;20059;-68
2022/01/07 03:22:52;;;;;;;9.27;3.05;;;3.90;99.90;;;;;;4162841;28;20042;-68
2022/01/07 03:24:53;;;;;;;9.48;3.00;;;4.00;99.90;;;;;;4161336;28;20042;-68
2022/01/07 03:26:53;;;;;;;8.02;3.38;;;4.00;99.90;;;;;;4163536;28;20065;-67
2022/01/07 03:28:54;;;;;;;8.77;3.20;;;4.00;99.90;;;;;;4161374;28;20061;-67
2022/01/07 03:30:55;;;;;;;6.22;2.50;;;4.00;99.90;;;;;;4161107;28;20083;-67
2022/01/07 03:32:56;;;;;;;8.35;3.08;;;4.00;99.90;;;;;;4162780;28;20053;-67
2022/01/07 03:34:56;;;;;;;10.45;3.20;;;4.10;99.90;;;;;;4163735;28;20069;-67
2022/01/07 03:36:57;;;;;;;9.95;3.25;;;4.00;99.90;;;;;;4160234;28;20385;-67
2022/01/07 03:39:00;;;;;;;10.73;3.50;;;4.10;99.90;;;;;;4164144;28;20550;-67
2022/01/07 03:41:01;;;;;;;11.60;3.00;;;4.10;99.90;;;;;;4162819;28;20107;-68
2022/01/07 03:43:02;;;;;;;7.57;2.80;;;4.10;99.90;;;;;;4163183;28;20113;-69
2022/01/07 03:45:04;;;;;;;9.43;3.00;;;4.10;99.90;;;;;;4164423;28;20091;-68
2022/01/07 03:47:05;;;;;;;;;;;4.10;99.90;;;;;;4163844;28;20037;-68
2022/01/07 03:49:05;;;;;;;7.43;2.90;;;4.10;99.90;;;;;;4163835;28;19913;-67
2022/01/07 03:51:06;;;;;;;5.25;2.38;;;4.20;99.90;;;;;;4163644;28;20041;-67
2022/01/07 03:53:07;;;;;;;6.43;2.45;;;4.20;99.90;;;;;;4164019;28;20053;-67
2022/01/07 03:55:10;;;;;;;8.73;2.95;;;4.20;99.90;;;;;;4162801;28;20477;-68
2022/01/07 03:57:11;;;;;;;8.43;2.78;;;4.20;99.90;;;;;;4159842;28;20045;-67
2022/01/07 03:59:12;;;;;;;8.68;2.70;;;4.20;99.90;;;;;;4163328;28;20038;-67
2022/01/07 04:01:12;;;;;;;5.18;2.67;;;4.20;99.90;;;;;;4163170;28;20033;-68
2022/01/07 04:03:16;;;;;;;9.35;2.55;;;4.30;99.90;;;;;;4161868;28;20498;-67
2022/01/07 04:05:20;;;;;;;9.25;2.90;;;4.30;99.90;;;;;;4161594;28;20045;-67
2022/01/07 04:07:21;;;;;;;6.32;2.42;;;4.30;99.90;;;;;;4161450;28;20041;-67
2022/01/07 04:09:21;;;;;;;7.07;2.97;;;4.30;99.90;;;;;;4163444;28;20372;-67
2022/01/07 04:11:22;;;;;;;6.28;2.75;;;4.30;99.90;;;;;;4163140;28;20045;-67
2022/01/07 04:13:23;;;;;;;8.55;2.42;;;4.30;99.90;;;;;;4161337;28;20115;-67
2022/01/07 04:15:23;;;;;;;6.20;2.35;;;4.30;99.90;;;;;;4161888;28;20051;-67
2022/01/07 04:17:24;;;;;;;7.25;2.63;;;4.30;99.90;;;;;;4160970;28;20041;-67
2022/01/07 04:19:25;;;;;;;9.05;2.80;;;4.30;99.90;;;;;;4159991;28;20076;-67
2022/01/07 04:21:25;;;;;;;8.60;2.90;;;4.30;99.90;;;;;;4162948;28;20037;-67
2022/01/07 04:23:26;;;;;;;5.30;2.38;;;4.40;99.90;;;;;;4163032;28;20122;-67
2022/01/07 04:25:27;;;;;;;6.25;2.63;;;4.30;99.90;;;;;;4162038;28;20038;-67
2022/01/07 04:27:28;;;;;;;7.47;2.38;;;4.40;99.90;;;;;;4160021;28;20107;-67
2022/01/07 04:29:28;;;;;;;5.25;2.28;;;4.40;99.90;;;;;;4163764;28;20034;-67
2022/01/07 04:31:29;;;;;;;7.85;3.00;;;4.30;99.90;;;;;;4161974;28;20084;-67
2022/01/07 04:33:32;;;;;;;8.85;2.83;;;4.30;99.90;;;;;;4163632;28;20373;-67
2022/01/07 04:35:35;;;;;;;7.93;2.75;;;4.30;99.90;;;;;;4148329;28;20523;-68
2022/01/07 04:37:37;;;;;;;9.27;2.72;;;4.40;99.90;;;;;;4158868;28;20083;-68
2022/01/07 04:39:37;;;;;;;9.57;2.70;;;4.40;99.90;;;;;;4160566;28;20067;-67
2022/01/07 04:41:38;;;;;;;6.50;2.67;;;4.40;99.90;;;;;;4162571;28;20041;-67
2022/01/07 04:43:39;;;;;;;6.38;2.17;;;4.40;99.90;;;;;;4162084;28;20033;-67
2022/01/07 04:45:39;;;;;;;9.88;2.30;;;4.30;99.90;;;;;;4161607;28;20037;-67
2022/01/07 04:47:41;;;;;;;8.10;2.40;;;4.50;99.90;;;;;;4160827;28;20025;-67
2022/01/07 04:49:42;;;;;;;9.93;2.53;;;4.40;99.90;;;;;;4162724;28;20396;-67
2022/01/07 04:51:42;;;;;;;7.65;2.55;;;4.40;99.90;;;;;;4159075;28;20029;-67
2022/01/07 04:53:43;;;;;;;6.88;2.67;;;4.40;99.90;;;;;;4160728;28;20051;-67
2022/01/07 04:55:44;;;;;;;4.55;2.13;;;4.40;99.90;;;;;;4161257;28;20097;-67
2022/01/07 04:57:46;;;;;;;5.85;2.20;;;4.40;99.90;;;;;;4162722;28;20091;-67
2022/01/07 04:59:46;;;;;;;8.57;2.45;;;4.40;99.90;;;;;;4160596;28;20041;-67
2022/01/07 05:01:47;;;;;;;5.80;2.15;;;4.40;99.90;;;;;;4161648;28;20087;-67
2022/01/07 05:03:48;;;;;;;11.43;2.85;;;4.40;99.90;;;;;;4144874;28;20072;-67
2022/01/07 05:05:59;;;;;;;4.53;2.13;;;4.40;99.90;;;;;;4161344;28;20038;-67
2022/01/07 05:08:02;;;;;;;8.68;2.70;;;4.40;99.90;;;;;;4145358;28;20553;-67
2022/01/07 05:10:08;;;;;;;4.60;1.85;;;4.30;99.90;;;;;;4162637;28;20622;-68
2022/01/07 05:12:09;;;;;;;7.63;2.45;;;4.30;99.90;;;;;;4158831;28;20420;-67
2022/01/07 05:14:09;;;;;;;10.40;2.78;;;4.20;99.90;;;;;;4162600;28;20044;-67
2022/01/07 05:16:10;;;;;;;8.10;2.85;;;4.20;99.90;;;;;;4162086;28;20485;-67
2022/01/07 05:18:10;;;;;;;6.05;2.22;;;4.10;99.90;;;;;;4162726;28;20029;-68
2022/01/07 05:20:13;;;;;;;5.50;2.20;;;4.10;99.90;;;;;;4161406;28;20042;-69
2022/01/07 05:22:14;;;;;;;6.10;1.95;;;4.20;99.90;;;;;;4154531;28;20041;-67
2022/01/07 05:24:14;;;;;;;3.10;1.90;;;4.20;99.90;;;;;;4162750;28;20041;-67
2022/01/07 05:26:15;;;;;;;11.82;2.60;;;4.20;99.90;;;;;;4158959;28;20117;-67
2022/01/07 05:28:16;;;;;;;7.30;2.42;;;4.20;99.90;;;;;;4159982;28;20124;-67
2022/01/07 05:30:18;;;;;;;4.50;1.92;;;4.20;99.90;;;;;;4158801;28;20064;-68
2022/01/07 05:32:19;;;;;;;7.40;2.80;;;4.20;99.90;;;;;;4160078;28;20049;-67
2022/01/07 05:34:20;;;;;;;8.40;2.38;;;4.10;99.90;;;;;;4163139;28;20057;-68
2022/01/07 05:36:21;;;;;;;9.23;2.63;;;4.10;99.90;;;;;;4160542;28;20029;-68
2022/01/07 05:38:22;;;;;;;10.60;2.58;;;4.10;99.90;;;;;;4162826;28;20060;-68
2022/01/07 05:40:23;;;;;;;7.20;2.72;;;4.10;99.90;;;;;;4153738;28;20412;-68
2022/01/07 05:42:25;;;;;;;5.82;2.22;;;4.10;99.90;;;;;;4162106;28;20042;-67
2022/01/07 05:44:26;;;;;;;8.68;2.50;;;4.10;99.90;;;;;;4162736;28;20477;-68
2022/01/07 05:46:26;;;;;;;9.02;2.38;;;4.10;99.90;;;;;;4160815;28;20047;-67
2022/01/07 05:48:27;;;;;;;8.15;2.15;;;4.10;99.90;;;;;;4160654;28;20116;-68
2022/01/07 05:50:28;;;;;;;7.78;2.38;;;4.10;99.90;;;;;;4158213;28;20065;-68
2022/01/07 05:52:28;;;;;;;5.15;1.95;;;4.10;99.90;;;;;;4162102;28;20069;-68
2022/01/07 05:54:29;;;;;;;5.97;2.17;;;4.10;99.90;;;;;;4159645;28;20489;-67
2022/01/07 05:56:31;;;;;;;4.53;2.28;;;4.10;99.90;;;;;;4158577;28;20029;-68
2022/01/07 05:58:32;;;;;;;5.15;2.28;;;4.10;99.90;;;;;;4162649;28;20041;-69
2022/01/07 06:00:33;;;;;;;7.75;2.92;;;4.10;99.90;;;;;;4159365;28;20492;-68
2022/01/07 06:02:33;;;;;;;7.65;2.65;;;4.10;99.90;;;;;;4160079;28;20057;-68
2022/01/07 06:04:34;;;;;;;6.60;2.20;;;4.10;99.90;;;;;;4160146;28;20037;-68
2022/01/07 06:06:35;;;;;;;5.40;2.45;;;4.10;99.90;;;;;;4161643;28;20037;-68
2022/01/07 06:08:35;;;;;;;4.72;2.08;;;4.10;99.90;;;;;;4161205;28;20060;-68
2022/01/07 06:10:36;;;;;;;8.07;2.35;;;4.10;99.90;;;;;;4157923;28;20381;-68
2022/01/07 06:12:37;;;;;;;6.55;2.45;;;4.10;99.90;;;;;;4156647;28;20121;-68
2022/01/07 06:14:37;;;;;;;6.53;2.30;;;4.10;99.90;;;;;;4160823;28;20040;-67
2022/01/07 06:16:38;;;;;;;11.93;2.15;;;4.20;99.90;;;;;;4159498;28;20034;-67
2022/01/07 06:18:50;;;;;;;4.15;2.10;;;4.20;99.90;;;;;;4162163;28;20072;-67
2022/01/07 06:20:51;;;;;;;5.82;2.47;;;4.20;99.90;;;;;;4158389;28;20126;-67
2022/01/07 06:22:51;;;;;;;6.72;2.50;;;4.20;99.90;;;;;;4159614;28;20040;-67
2022/01/07 06:24:52;;;;;;;5.80;2.47;;;4.20;99.90;;;;;;4159954;28;20152;-67
2022/01/07 06:26:52;;;;;;;9.10;2.53;;;4.20;99.90;;;;;;4158502;28;20034;-67
2022/01/07 06:28:53;;;;;;;6.15;2.75;;;4.30;99.90;;;;;;4165891;28;20500;-67
2022/01/07 06:30:55;;;;;;;4.20;2.10;;;4.30;99.90;;;;;;4164940;28;20420;-67
2022/01/07 06:32:55;;;;;;;3.77;1.97;;;4.20;99.90;;;;;;4165496;28;20095;-67
2022/01/07 06:34:56;;;;;;;6.28;2.58;;;4.20;99.90;;;;;;4169456;28;20079;-67
2022/01/07 06:36:58;;;;;;;6.15;2.22;;;4.30;99.90;;;;;;4164120;28;20048;-67
2022/01/07 06:38:58;;;;;;;5.72;1.92;;;4.30;99.90;;;;;;4167664;28;20120;-67
2022/01/07 06:40:59;;;;;;;7.80;2.47;;;4.30;99.90;;;;;;4163077;28;20365;-67
2022/01/07 06:43:00;;;;;;;4.40;1.95;;;4.40;99.90;;;;;;4166264;28;20037;-67
2022/01/07 06:45:01;;;;;;;5.90;1.88;;;4.40;99.90;;;;;;4162011;28;20040;-67
2022/01/07 06:47:01;;;;;;;7.45;2.47;;;4.40;99.90;;;;;;4159749;28;20087;-67
2022/01/07 06:49:02;;;;;;;5.07;2.30;;;4.40;99.90;;;;;;4164844;28;20519;-68
2022/01/07 06:51:03;;;;;;;5.20;2.25;;;4.40;99.90;;;;;;4163172;28;20037;-68
2022/01/07 06:53:03;;;;;;;4.82;2.47;;;4.40;99.90;;;;;;4160684;28;20091;-68
2022/01/07 06:55:04;;;;;;;4.28;2.30;;;4.40;99.90;;;;;;4165103;28;20139;-70
2022/01/07 06:57:05;;;;;;;3.25;2.00;;;4.40;99.90;;;;;;4164047;28;20045;-67
2022/01/07 06:59:06;;;;;;;4.43;2.42;;;4.40;99.90;;;;;;4164974;28;20044;-68
2022/01/07 07:01:06;;;;;;;5.10;2.17;;;4.40;99.90;;;;;;4166401;28;20037;-67
2022/01/07 07:03:07;;;;;;;5.00;1.95;;;4.50;99.90;;;;;;4166744;28;20074;-67
2022/01/07 07:05:08;;;;;;;6.93;2.70;;;4.50;99.90;;;;;;4163832;28;20044;-68
2022/01/07 07:07:09;;;;;;;5.53;2.30;;;4.50;99.90;;;;;;4167623;28;20034;-68
2022/01/07 07:09:10;;;;;;;8.73;2.45;;;4.50;99.90;;;;;;4163949;28;20088;-67
2022/01/07 07:11:10;;;;;;;8.45;2.92;;;4.50;99.90;;;;;;4163583;28;20033;-67
2022/01/07 07:13:11;;;;;;;8.18;2.58;;;4.50;99.90;;;;;;4163105;28;20045;-67
2022/01/07 07:15:12;;;;;;;8.75;2.58;;;4.50;99.90;;;;;;4165917;28;20037;-68
2022/01/07 07:17:13;;;;;;;6.53;2.47;;;4.50;99.90;;;;;;4164776;28;20044;-67
2022/01/07 07:19:13;;;;;;;4.18;2.45;;;4.50;99.90;;;;;;4171218;28;20036;-67
2022/01/07 07:21:14;;;;;;;7.78;2.78;;;4.50;99.90;;;;;;4168857;28;20557;-67
2022/01/07 07:23:14;;;;;;;9.45;3.10;;;4.50;99.90;;;;;;4170904;28;20068;-67
2022/01/07 07:25:15;;;;;;;7.22;2.85;;;4.60;99.90;;;;;;4164918;28;20492;-67
2022/01/07 07:27:16;;;;;;;8.45;2.80;;;4.50;99.90;;;;;;4165210;28;20037;-67
2022/01/07 07:29:16;;;;;;;8.95;2.80;;;4.60;99.90;;;;;;4165177;28;20408;-67
2022/01/07 07:31:18;;;;;;;6.05;2.60;;;4.60;99.90;;;;;;4165126;28;20385;-67
2022/01/07 07:37:43;;;;;;;7.75;3.05;;;4.70;99.90;;;;;;4131573;28;20037;-67
2022/01/07 07:39:44;;;;;;;6.97;3.08;;;4.70;99.90;;;;;;4162822;28;20049;-67
2022/01/07 07:41:45;;;;;;;5.82;3.17;;;4.70;99.90;;;;;;4164743;28;20044;-67
2022/01/07 07:43:50;;;;;;;4.50;2.30;;;4.70;99.90;;;;;;4168617;28;20511;-67
2022/01/07 07:45:50;;;;;;;5.43;3.15;;;4.70;99.90;;;;;;4161315;28;20062;-67
2022/01/07 07:47:51;;;;;;;4.00;2.28;;;4.70;99.90;;;;;;4159619;28;20489;-67
2022/01/07 07:49:51;;;;;;;9.52;3.17;;;4.80;99.90;;;;;;4168178;28;20112;-67
2022/01/07 07:51:53;;;;;;;7.15;2.72;;;4.80;99.90;;;;;;4167892;28;20041;-67
2022/01/07 07:53:54;;;;;;;5.55;2.65;;;4.80;99.90;;;;;;4165691;28;20045;-67
2022/01/07 07:55:54;;;;;;;9.43;2.60;;;4.90;99.90;;;;;;4166086;28;20072;-67
2022/01/07 07:57:55;;;;;;;6.38;2.97;;;4.90;99.90;;;;;;4167659;28;20041;-67
2022/01/07 07:59:56;;;;;;;7.40;3.00;;;4.80;99.90;;;;;;4165857;28;20045;-67
2022/01/07 08:01:56;;;;;;;3.80;2.28;;;4.90;99.90;;;;;;4147272;28;20046;-67
2022/01/07 08:03:57;;;;;;;4.68;2.53;;;4.90;99.90;;;;;;4171183;28;20574;-67
2022/01/07 08:05:58;;;;;;;7.38;4.30;;;5.00;99.90;;;;;;4166147;28;20130;-67
2022/01/07 08:08:02;;;;;;;7.57;3.40;;;4.90;99.90;;;;;;4164809;28;20114;-67
2022/01/07 08:10:04;;;;;;;5.47;3.00;;;4.90;99.90;;;;;;4163882;28;20036;-67
2022/01/07 08:12:17;;;;;;;4.80;2.63;;;5.00;99.90;;;;;;4163128;28;20037;-67
2022/01/07 08:16:39;;;;;;;4.65;2.30;;;5.00;99.90;;;;;;4166436;28;20029;-67
2022/01/07 08:18:40;;;;;;;5.55;3.00;;;5.00;99.90;;;;;;4168700;28;20045;-67
2022/01/07 08:20:41;;;;;;;5.97;2.88;;;5.10;99.90;;;;;;4163998;28;20041;-67
2022/01/07 08:22:41;;;;;;;5.95;2.95;;;5.00;99.90;;;;;;4167799;28;20098;-67
2022/01/07 08:24:42;;;;;;;7.38;3.42;;;5.00;99.90;;;;;;4166365;28;20037;-67
2022/01/07 08:26:42;;;;;;;5.70;2.97;;;5.00;99.90;;;;;;4162893;28;20041;-67
2022/01/07 08:28:48;;;;;;;6.57;3.00;;;5.00;99.90;;;;;;4167632;28;20028;-67
2022/01/07 08:35:23;;;;;;;4.38;2.53;;;5.00;99.90;;;;;;4127767;28;20701;-67
2022/01/07 08:37:26;;;;;;;4.53;2.70;;;5.00;99.90;;;;;;4166526;28;20041;-67
2022/01/07 08:39:27;;;;;;;5.50;2.55;;;5.10;99.90;;;;;;4165521;28;20431;-67
2022/01/07 08:41:30;;;;;;;8.13;2.60;;;5.10;99.90;;;;;;4170412;28;20045;-67
2022/01/07 08:43:31;;;;;;;;;;;5.10;99.90;;;;;;4167262;28;20050;-67
2022/01/07 08:45:31;;;;;;;5.13;2.47;;;5.10;99.90;;;;;;4165837;28;20378;-67
2022/01/07 08:47:32;;;;;;;4.45;2.75;;;5.10;99.90;;;;;;4166359;28;20040;-67
2022/01/07 08:49:33;;;;;;;7.03;3.17;;;5.20;99.90;;;;;;4167865;28;20632;-68
2022/01/07 08:51:34;;;;;;;4.20;2.65;;;5.10;99.90;;;;;;4161370;28;20171;-69
2022/01/07 08:53:35;;;;;;;3.30;2.45;;;5.10;99.90;;;;;;4171692;28;20061;-68
2022/01/07 08:55:36;;;;;;;5.00;2.53;;;5.10;99.90;;;;;;4165124;28;20412;-68
2022/01/07 08:57:36;;;;;;;6.40;2.80;;;5.10;99.90;;;;;;4166721;28;20046;-68
2022/01/07 08:59:37;;;;;;;6.15;3.35;;;5.20;99.90;;;;;;4166776;28;20041;-68
2022/01/07 09:01:38;;;;;;;4.63;2.50;;;5.20;99.90;;;;;;4167149;28;20450;-68
2022/01/07 09:03:38;;;;;;;5.45;2.00;;;5.20;99.90;;;;;;4167022;28;20042;-68
2022/01/07 09:05:39;;;;;;;5.38;2.42;;;5.30;99.90;;;;;;4164061;28;20127;-68
2022/01/07 09:07:39;;;;;;;6.57;2.45;;;5.20;99.90;;;;;;4164793;28;20049;-68
2022/01/07 09:09:40;;;;;;;4.43;2.40;;;5.20;99.90;;;;;;4166909;28;20069;-68
2022/01/07 09:11:41;;;;;;;6.03;2.15;;;5.20;99.90;;;;;;4163423;28;20171;-68
2022/01/07 09:13:41;;;;;;;4.90;2.75;;;5.20;99.90;;;;;;4164859;28;20416;-68
2022/01/07 09:15:43;;;;;;;4.63;2.17;;;5.30;99.90;;;;;;4167032;28;20029;-68
2022/01/07 09:17:44;;;;;;;4.95;2.45;;;5.20;99.90;;;;;;4150174;28;20053;-68
2022/01/07 09:19:44;;;;;;;4.75;2.30;;;5.30;99.90;;;;;;4165350;28;20060;-66
2022/01/07 09:21:45;;;;;;;5.85;2.47;;;5.20;99.90;;;;;;4165513;28;20037;-68
2022/01/07 09:23:46;;;;;;;3.90;2.28;;;5.30;99.90;;;;;;4167555;28;20033;-67
2022/01/07 09:25:46;;;;;;;4.35;2.33;;;5.30;99.90;;;;;;4164545;28;20045;-67
2022/01/07 09:27:47;;;;;;;5.78;2.63;;;5.30;99.90;;;;;;4167709;28;20442;-67
2022/01/07 09:29:48;;;;;;;6.07;2.60;;;5.30;99.90;;;;;;4165133;28;20116;-67
2022/01/07 09:31:49;;;;;;;7.50;2.50;;;5.40;99.90;;;;;;4164747;28;20035;-67
2022/01/07 09:33:50;;;;;;;9.43;2.20;;;5.40;99.90;;;;;;4166469;28;20113;-66
2022/01/07 09:35:51;;;;;;;7.68;2.63;;;5.40;99.90;;;;;;4165438;28;20503;-67
2022/01/07 09:37:52;;;;;;;2.92;2.22;;;5.40;99.90;;;;;;4167942;28;20055;-67
2022/01/07 09:39:52;;;;;;;4.32;2.25;;;5.40;99.90;;;;;;4165754;28;20069;-67
2022/01/07 09:41:53;;;;;;;2.85;2.28;;;5.40;99.90;;;;;;4165387;28;20033;-67
2022/01/07 09:43:53;;;;;;;5.07;2.67;;;5.40;99.90;;;;;;4167281;28;20048;-67
2022/01/07 09:45:54;;;;;;;3.75;2.15;;;5.40;99.90;;;;;;4167756;28;20075;-67
2022/01/07 09:47:55;;;;;;;4.30;2.35;;;5.40;99.90;;;;;;4167925;28;20506;-67
2022/01/07 09:49:56;;;;;;;3.85;2.47;;;5.40;99.90;;;;;;4167894;28;20037;-72
2022/01/07 09:51:58;;;;;;;5.40;2.42;;;5.50;99.90;;;;;;4149923;28;20042;-67
2022/01/07 09:54:03;;;;;;;3.70;2.05;;;5.50;99.90;;;;;;4164973;28;20073;-67
2022/01/07 09:56:04;;;;;;;6.00;2.40;;;5.50;99.90;;;;;;4163286;28;20128;-67
2022/01/07 09:58:05;;;;;;;4.32;2.00;;;5.50;99.90;;;;;;4164857;28;20033;-69
2022/01/07 10:00:08;;;;;;;3.00;1.95;;;5.60;99.90;;;;;;4153137;28;20116;-69
2022/01/07 10:02:10;;;;;;;3.42;2.20;;;5.60;99.90;;;;;;4164846;28;20579;-68
2022/01/07 10:04:30;;;;;;;4.47;2.50;;;5.60;99.90;;;;;;4167873;28;20487;-68
2022/01/07 10:06:31;;;;;;;5.07;2.30;;;5.60;99.90;;;;;;4168402;28;20045;-68
2022/01/07 10:08:32;;;;;;;3.10;2.17;;;5.60;99.90;;;;;;4168958;28;20128;-67
2022/01/07 10:10:32;;;;;;;4.82;2.78;;;5.60;99.90;;;;;;4169321;28;20045;-67
2022/01/07 10:12:48;;;;;;;7.45;2.90;;;5.60;99.90;;;;;;4170312;28;20041;-67
2022/01/07 10:15:18;;;;;;;3.45;1.98;;;5.60;99.90;;;;;;4170678;28;20033;-67
2022/01/07 10:17:18;;;;;;;4.72;2.33;;;5.70;99.90;;;;;;4166624;28;20068;-67
2022/01/07 10:19:34;;;;;;;3.10;1.90;;;5.70;99.90;;;;;;4170820;28;20040;-67
2022/01/07 10:21:35;;;;;;;5.63;2.35;;;5.70;99.90;;;;;;4165989;28;20052;-68
2022/01/07 10:23:36;;;;;;;3.90;2.10;;;5.70;99.90;;;;;;4167957;28;20392;-68
2022/01/07 10:25:44;;;;;;;3.35;1.98;;;5.70;99.90;;;;;;4167942;28;20512;-67
2022/01/07 10:27:45;;;;;;;2.72;1.90;;;5.70;99.90;;;;;;4167654;28;20056;-67
2022/01/07 10:29:46;;;;;;;4.68;2.50;;;5.70;99.90;;;;;;4168428;28;20049;-67
2022/01/07 10:31:46;;;;;;;5.35;2.33;;;5.70;99.90;;;;;;4166881;28;20083;-67
2022/01/07 10:33:49;;;;;;;3.92;2.10;;;5.70;99.90;;;;;;4166015;28;20060;-67
2022/01/07 10:36:15;;;;;;;5.35;2.10;;;5.70;99.90;;;;;;4169270;28;20427;-67
2022/01/07 10:38:22;;;;;;;4.10;2.20;;;5.80;99.90;;;;;;4168615;28;20163;-67
2022/01/07 10:40:34;;;;;;;2.95;2.05;;;5.80;99.90;;;;;;4166771;28;20154;-67
2022/01/07 10:42:35;;;;;;;3.03;1.88;;;5.80;99.90;;;;;;4165522;28;20060;-67
2022/01/07 10:45:00;;;;;;;3.95;2.13;;;5.80;99.90;;;;;;4165178;28;20548;-68
2022/01/07 10:47:08;;;;;;;4.03;1.98;;;5.80;99.90;;;;;;4165523;28;20122;-67
2022/01/07 10:49:09;;;;;;;3.53;2.13;;;5.80;99.90;;;;;;4167056;28;20036;-67
2022/01/07 10:51:15;;;;;;;3.40;2.13;;;5.80;99.90;;;;;;4167410;28;20041;-67